Time;durP1;ratioP1;P1;durP2;ratioP2;P2;SDS_P1;SDS_P2;PMS_P1;PMS_P2;Temp;Humidity;BMP_temperature;BMP_pressure;BME280_temperature;BME280_humidity;BME280_pressure;Samples;Min_cycle;Max_cycle;Signal;HPM_P1;HPM_P2
2022/08/24 00:00:00;;;;;;;3.23;2.20;;;;;;;;;;5050454;28;20461;-67
2022/08/24 00:02:27;;;;;;;2.90;2.70;;;;;;;;;;5051118;28;20457;-68
2022/08/24 00:04:55;;;;;;;2.83;2.63;;;;;;;;;;5049946;28;20457;-68
2022/08/24 00:07:24;;;;;;;2.90;2.60;;;;;;;;;;5052888;28;20538;-68
2022/08/24 00:09:51;;;;;;;2.80;2.50;;;;;;;;;;5055107;28;20454;-67
2022/08/24 00:12:18;;;;;;;2.53;2.30;;;;;;;;;;5050691;28;20453;-68
2022/08/24 00:14:46;;;;;;;2.80;2.60;;;;;;;;;;5050105;28;20474;-67
2022/08/24 00:17:13;;;;;;;2.50;2.27;;;;;;;;;;5050738;28;20526;-67
2022/08/24 00:19:41;;;;;;;2.43;2.23;;;;;;;;;;5050716;28;20447;-67
2022/08/24 00:22:08;;;;;;;3.43;2.90;;;;;;;;;;5049474;28;20489;-67
2022/08/24 00:24:37;;;;;;;3.27;2.37;;;;;;;;;;5049819;28;20469;-67
2022/08/24 00:27:05;;;;;;;2.43;2.23;;;;;;;;;;5049800;28;20446;-67
2022/08/24 00:29:32;;;;;;;2.50;2.30;;;;;;;;;;5046345;28;20469;-67
2022/08/24 00:31:59;;;;;;;5.40;2.80;;;;;;;;;;5049758;28;20459;-67
2022/08/24 00:34:28;;;;;;;2.97;2.40;;;;;;;;;;5050096;28;20529;-67
2022/08/24 00:36:56;;;;;;;2.73;2.53;;;;;;;;;;5048969;28;20451;-67
2022/08/24 00:39:23;;;;;;;4.07;2.70;;;;;;;;;;5049474;28;20477;-67
2022/08/24 00:41:52;;;;;;;3.77;2.47;;;;;;;;;;5049094;28;20785;-67
2022/08/24 00:44:20;;;;;;;2.60;2.40;;;;;;;;;;5050150;28;20542;-67
2022/08/24 00:46:50;;;;;;;2.93;2.47;;;;;;;;;;5060381;28;20529;-67
2022/08/24 00:49:20;;;;;;;2.80;2.60;;;;;;;;;;5050915;28;20446;-66
2022/08/24 00:51:50;;;;;;;4.17;3.10;;;;;;;;;;5049318;28;20442;-67
2022/08/24 00:54:18;;;;;;;3.23;2.40;;;;;;;;;;5047722;28;20445;-67
2022/08/24 00:56:50;;;;;;;3.23;2.13;;;35.10;1.00;;;;;;5049413;28;20446;-67
2022/08/24 00:59:22;;;;;;;3.30;2.60;;;17.90;1.00;;;;;;5049750;28;20562;-67
2022/08/24 01:01:50;;;;;;;3.23;2.93;;;18.00;99.90;;;;;;5048602;28;20455;-67
2022/08/24 01:04:22;;;;;;;4.20;2.93;;;18.00;99.90;;;;;;5049467;28;20942;-67
2022/08/24 01:06:49;;;;;;;3.07;2.77;;;18.00;99.90;;;;;;5045302;28;20447;-67
2022/08/24 01:09:16;;;;;;;3.50;3.17;;;18.00;99.90;;;;;;5049972;28;20451;-67
2022/08/24 01:11:44;;;;;;;2.67;2.47;;;18.00;99.90;;;;;;5049252;28;20898;-67
2022/08/24 01:14:11;;;;;;;4.47;2.60;;;18.10;99.90;;;;;;5049421;28;20529;-67
2022/08/24 01:19:32;;;;;;;3.53;3.23;;;17.70;1.00;;;;;;5049397;28;20469;-67
2022/08/24 01:22:20;;;;;;;3.00;2.70;;;17.60;1.00;;;;;;5050209;28;20472;-67
2022/08/24 01:24:49;;;;;;;2.90;2.70;;;17.60;1.00;;;;;;5052308;28;20446;-67
2022/08/24 01:27:16;;;;;;;2.73;2.53;;;17.40;99.90;;;;;;5053528;28;20453;-67
2022/08/24 01:29:45;;;;;;;2.77;2.57;;;17.30;99.90;;;;;;5053110;28;20453;-67
2022/08/24 01:32:13;;;;;;;2.90;2.60;;;17.30;1.00;;;;;;5052921;28;20447;-67
2022/08/24 01:34:40;;;;;;;2.70;2.50;;;17.20;1.00;;;;;;5052846;28;20963;-67
2022/08/24 01:37:10;;;;;;;2.70;2.50;;;17.20;1.00;;;;;;5052013;28;20968;-67
2022/08/24 01:39:40;;;;;;;2.53;2.33;;;17.40;99.90;;;;;;5052787;28;20482;-67
2022/08/24 01:42:09;;;;;;;2.93;2.73;;;17.30;1.00;;;;;;5053110;28;20862;-67
2022/08/24 01:44:38;;;;;;;6.17;2.40;;;17.10;1.00;;;;;;5050530;28;21007;-67
2022/08/24 01:47:07;;;;;;;3.33;2.63;;;17.20;1.00;;;;;;5052162;28;20447;-67
2022/08/24 01:49:37;;;;;;;3.33;2.90;;;17.10;1.00;;;;;;5040700;28;20459;-69
2022/08/24 01:52:06;;;;;;;3.47;3.07;;;17.20;1.00;;;;;;5047267;28;20971;-69
2022/08/24 01:54:33;;;;;;;3.97;2.47;;;17.00;99.90;;;;;;5052544;28;20508;-66
2022/08/24 01:57:00;;;;;;;2.70;2.50;;;17.00;1.00;;;;;;5052361;28;20537;-66
2022/08/24 01:59:29;;;;;;;2.80;2.50;;;16.90;1.00;;;;;;5052214;28;20557;-66
2022/08/24 02:02:01;;;;;;;3.40;2.67;;;16.90;99.90;;;;;;5051640;28;20454;-66
2022/08/24 02:04:28;;;;;;;4.13;2.30;;;;;;;;;;5052295;28;20451;-66
2022/08/24 02:06:55;;;;;;;3.47;3.00;;;;;;;;;;5051657;28;20529;-66
2022/08/24 02:09:23;;;;;;;2.67;2.47;;;;;;;;;;5052350;28;20458;-67
2022/08/24 02:11:50;;;;;;;4.83;3.07;;;;;;;;;;5051698;28;20457;-66
2022/08/24 02:14:18;;;;;;;3.67;3.00;;;;;;;;;;5052561;28;20482;-66
2022/08/24 02:16:46;;;;;;;3.00;2.70;;;;;;;;;;5051934;28;20450;-67
2022/08/24 02:19:13;;;;;;;3.10;2.60;;;;;;;;;;5052354;28;20564;-66
2022/08/24 02:21:41;;;;;;;3.50;3.13;;;;;;;;;;5052108;28;20452;-66
2022/08/24 02:24:08;;;;;;;3.23;2.97;;;;;;;;;;5043493;28;20525;-66
2022/08/24 02:26:35;;;;;;;3.27;2.80;;;;;;;;;;5051857;28;20458;-66
2022/08/24 02:29:03;;;;;;;5.30;3.30;;;;;;;;;;5051667;28;20545;-66
2022/08/24 02:31:30;;;;;;;2.90;2.37;;;;;;;;;;5052108;28;20877;-66
2022/08/24 02:33:58;;;;;;;5.40;3.20;;;;;;;;;;5050962;28;20450;-68
2022/08/24 02:36:26;;;;;;;3.20;2.70;;;;;;;;;;5051456;28;20534;-67
2022/08/24 02:38:53;;;;;;;3.33;2.90;;;;;;;;;;5051063;28;20477;-67
2022/08/24 02:41:20;;;;;;;3.60;2.97;;;;;;;;;;5051925;28;20597;-67
2022/08/24 02:43:47;;;;;;;3.33;2.70;;;;;;;;;;5050936;28;20464;-67
2022/08/24 02:46:18;;;;;;;3.30;3.00;;;;;;;;;;5051674;28;20448;-67
2022/08/24 02:48:46;;;;;;;4.53;3.20;;;;;;;;;;5046218;28;20440;-67
2022/08/24 02:51:21;;;;;;;4.20;3.30;;;;;;;;;;5051860;28;20539;-67
2022/08/24 02:53:48;;;;;;;3.00;2.70;;;;;;;;;;5050944;28;20462;-67
2022/08/24 02:56:16;;;;;;;3.13;2.50;;;;;;;;;;5051298;28;20496;-67
2022/08/24 02:58:43;;;;;;;3.03;2.83;;;;;;;;;;5051583;28;20480;-67
2022/08/24 03:01:10;;;;;;;2.90;2.70;;;;;;;;;;5051098;28;20986;-67
2022/08/24 03:03:38;;;;;;;5.53;3.23;;;;;;;;;;5051301;28;20449;-67
2022/08/24 03:06:05;;;;;;;2.40;2.20;;;;;;;;;;5049998;28;20454;-67
2022/08/24 03:08:34;;;;;;;3.67;3.37;;;;;;;;;;5051472;28;20457;-67
2022/08/24 03:11:01;;;;;;;2.97;2.70;;;;;;;;;;5051101;28;20454;-67
2022/08/24 03:13:29;;;;;;;2.90;2.70;;;;;;;;;;5050748;28;20446;-66
2022/08/24 03:15:56;;;;;;;2.90;2.50;;;;;;;;;;5050511;28;20799;-66
2022/08/24 03:18:24;;;;;;;3.07;2.80;;;;;;;;;;5050683;28;20845;-65
2022/08/24 03:20:51;;;;;;;2.80;2.43;;;;;;;;;;5050370;28;20543;-65
2022/08/24 03:23:18;;;;;;;2.90;2.70;;;;;;;;;;5050708;28;20975;-66
2022/08/24 03:25:47;;;;;;;3.50;2.97;;;;;;;;;;5049762;28;20541;-66
2022/08/24 03:28:15;;;;;;;4.13;3.10;;;;;;;;;;5050913;28;20460;-66
2022/08/24 03:30:42;;;;;;;3.40;3.10;;;;;;;;;;5051165;28;20875;-66
2022/08/24 03:33:09;;;;;;;4.00;3.23;;;;;;;;;;5050122;28;20489;-67
2022/08/24 03:35:37;;;;;;;2.77;2.57;;;;;;;;;;5050448;28;20454;-66
2022/08/24 03:38:04;;;;;;;2.97;2.77;;;;;;;;;;5049711;28;20448;-67
2022/08/24 03:40:32;;;;;;;2.60;2.40;;;;;;;;;;5050404;28;20447;-66
2022/08/24 03:43:01;;;;;;;3.10;2.80;;;;;;;;;;5037763;28;20449;-66
2022/08/24 03:45:28;;;;;;;5.67;3.33;;;;;;;;;;5050145;28;20451;-67
2022/08/24 03:47:55;;;;;;;3.03;2.80;;;;;;;;;;5050412;28;20453;-66
2022/08/24 03:50:23;;;;;;;4.20;3.60;;;;;;;;;;5050925;28;20498;-68
2022/08/24 03:52:51;;;;;;;3.33;3.03;;;;;;;;;;5049961;28;20552;-66
2022/08/24 03:55:18;;;;;;;3.70;3.40;;;;;;;;;;5050096;28;20447;-66
2022/08/24 03:57:46;;;;;;;5.13;3.20;;;;;;;;;;5049477;28;20448;-69
2022/08/24 04:00:15;;;;;;;4.43;3.47;;;;;;;;;;5051084;28;20453;-66
2022/08/24 04:02:43;;;;;;;3.67;3.37;;;;;;;;;;5051171;28;20786;-67
2022/08/24 04:05:12;;;;;;;3.50;3.20;;;;;;;;;;5049512;28;20446;-67
2022/08/24 04:07:39;;;;;;;4.57;4.17;;;;;;;;;;5051068;28;20447;-67
2022/08/24 04:10:06;;;;;;;5.60;3.70;;;;;;;;;;5050105;28;20498;-67
2022/08/24 04:12:33;;;;;;;4.53;3.47;;;;;;;;;;5050860;28;20467;-67
2022/08/24 04:15:01;;;;;;;3.07;2.77;;;;;;;;;;5049546;28;20511;-67
2022/08/24 04:17:30;;;;;;;5.53;3.83;;;;;;;;;;5050293;28;20440;-68
2022/08/24 04:19:57;;;;;;;3.80;3.40;;;;;;;;;;5049842;28;20459;-70
2022/08/24 04:22:24;;;;;;;3.07;2.77;;;;;;;;;;5060925;28;20458;-70
2022/08/24 04:24:51;;;;;;;4.23;3.60;;;;;;;;;;5052450;28;20448;-67
2022/08/24 04:27:19;;;;;;;2.97;2.77;;;;;;;;;;5050589;28;20440;-67
2022/08/24 04:29:46;;;;;;;4.03;3.40;;;;;;;;;;5050033;28;20823;-67
2022/08/24 04:32:14;;;;;;;4.07;3.73;;;;;;;;;;5050378;28;20483;-68
2022/08/24 04:34:43;;;;;;;4.13;2.90;;;;;;;;;;5050891;28;20517;-69
2022/08/24 04:37:10;;;;;;;3.37;3.07;;;;;;;;;;5050722;28;20803;-66
2022/08/24 04:39:37;;;;;;;4.40;3.10;;;;;;;;;;5050184;28;20539;-67
2022/08/24 04:42:04;;;;;;;4.07;3.20;;;;;;;;;;5049493;28;20536;-66
2022/08/24 04:44:32;;;;;;;3.53;3.23;;;;;;;;;;5049883;28;20949;-69
2022/08/24 04:47:00;;;;;;;5.00;3.27;;;;;;;;;;5050103;28;20526;-68
2022/08/24 04:49:27;;;;;;;3.10;2.90;;;;;;;;;;5049329;28;20476;-68
2022/08/24 04:51:55;;;;;;;3.47;3.00;;;;;;;;;;5049056;28;20444;-68
2022/08/24 04:54:23;;;;;;;5.40;3.60;;;;;;;;;;5036613;28;20462;-68
2022/08/24 04:56:50;;;;;;;5.03;3.33;;;;;;;;;;5050628;28;20523;-68
2022/08/24 04:59:17;;;;;;;4.77;4.30;;;;;;;;;;5053783;28;20544;-70
2022/08/24 05:01:45;;;;;;;3.57;3.20;;;;;;;;;;5054017;28;20536;-69
2022/08/24 05:04:12;;;;;;;3.60;3.30;;;;;;;;;;5053797;28;20548;-69
2022/08/24 05:06:41;;;;;;;6.77;4.20;;;;;;;;;;5053498;28;20485;-69
2022/08/24 05:09:10;;;;;;;3.33;3.03;;;;;;;;;;5052332;28;21054;-70
2022/08/24 05:11:39;;;;;;;5.30;3.37;;;;;;;;;;5053708;28;20450;-69
2022/08/24 05:14:06;;;;;;;3.80;2.90;;;;;;;;;;5052943;28;20535;-69
2022/08/24 05:16:36;;;;;;;5.87;3.40;;;;;;;;;;5053666;28;20458;-69
2022/08/24 05:19:03;;;;;;;3.90;3.50;;;;;;;;;;5053038;28;20552;-69
2022/08/24 05:21:31;;;;;;;6.43;4.00;;;;;;;;;;5053563;28;20449;-68
2022/08/24 05:23:58;;;;;;;3.70;3.07;;;;;;;;;;5052694;28;20887;-69
2022/08/24 05:26:27;;;;;;;4.73;3.43;;;;;;;;;;5053419;28;20460;-69
2022/08/24 05:28:55;;;;;;;3.97;3.60;;;;;;;;;;5052450;28;20466;-69
2022/08/24 05:31:23;;;;;;;4.90;3.50;;;;;;;;;;5053194;28;20941;-69
2022/08/24 05:33:50;;;;;;;3.60;3.30;;;;;;;;;;5053123;28;20455;-69
2022/08/24 05:36:18;;;;;;;5.03;3.77;;;;;;;;;;5053392;28;20767;-69
2022/08/24 05:38:46;;;;;;;4.50;3.30;;;;;;;;;;5052882;28;20500;-68
2022/08/24 05:41:13;;;;;;;4.00;3.40;;;;;;;;;;5053276;28;20451;-69
2022/08/24 05:43:42;;;;;;;3.90;3.60;;;;;;;;;;5053444;28;20462;-69
2022/08/24 05:46:09;;;;;;;3.50;3.10;;;;;;;;;;5052703;28;20865;-69
2022/08/24 05:48:37;;;;;;;3.97;3.60;;;;;;;;;;5052809;28;20447;-68
2022/08/24 05:51:05;;;;;;;4.37;3.60;;;;;;;;;;5039365;28;20552;-68
2022/08/24 05:53:32;;;;;;;3.90;3.50;;;;;;;;;;5052815;28;20455;-68
2022/08/24 05:56:02;;;;;;;3.30;3.00;;;;;;;;;;5052575;28;20443;-68
2022/08/24 05:58:29;;;;;;;4.67;3.30;;;;;;;;;;5052793;28;20454;-69
2022/08/24 06:00:59;;;;;;;6.00;3.50;;;;;;;;;;5052346;28;20810;-69
2022/08/24 06:03:26;;;;;;;4.47;3.10;;;;;;;;;;5052823;28;20459;-68
2022/08/24 06:05:53;;;;;;;4.50;3.57;;;;;;;;;;5052267;28;20462;-68
2022/08/24 06:08:21;;;;;;;3.37;3.07;;;;;;;;;;5051886;28;20453;-68
2022/08/24 06:10:48;;;;;;;5.47;3.40;;;;;;;;;;5052229;28;20811;-68
2022/08/24 06:13:16;;;;;;;4.10;3.73;;;;;;;;;;5052323;28;20976;-68
2022/08/24 06:15:43;;;;;;;4.07;3.67;;;;;;;;;;5052723;28;20478;-69
2022/08/24 06:18:12;;;;;;;3.60;3.20;;;;;;;;;;5051827;28;20538;-69
2022/08/24 06:20:40;;;;;;;3.73;3.10;;;;;;;;;;5052514;28;20450;-69
2022/08/24 06:23:08;;;;;;;4.23;3.40;;;;;;;;;;5051771;28;20537;-69
2022/08/24 06:28:19;;;;;;;3.40;3.10;;;;;;;;;;5051820;28;20442;-68
2022/08/24 06:30:47;;;;;;;3.20;2.90;;;;;;;;;;5051414;28;20493;-68
2022/08/24 06:33:15;;;;;;;3.53;3.23;;;;;;;;;;5052590;28;20466;-69
2022/08/24 06:35:42;;;;;;;3.73;3.27;;;;;;;;;;5051936;28;20909;-69
2022/08/24 06:38:09;;;;;;;2.90;2.70;;;;;;;;;;5051122;28;20458;-68
2022/08/24 06:40:37;;;;;;;3.60;3.30;;;;;;;;;;5051837;28;20486;-69
2022/08/24 06:43:04;;;;;;;3.50;2.90;;;;;;;;;;5051624;28;20454;-69
2022/08/24 06:45:31;;;;;;;3.87;3.47;;;;;;;;;;5052169;28;20921;-69
2022/08/24 06:47:58;;;;;;;3.60;3.03;;;;;;;;;;5051554;28;20524;-69
2022/08/24 06:50:27;;;;;;;4.70;3.07;;;;;;;;;;5051410;28;20478;-69
2022/08/24 06:52:54;;;;;;;4.00;3.60;;;;;;;;;;5051005;28;21009;-69
2022/08/24 06:55:21;;;;;;;3.47;2.73;;;;;;;;;;5051763;28;20458;-69
2022/08/24 06:57:48;;;;;;;4.53;3.70;;;;;;;;;;5051067;28;20536;-69
2022/08/24 07:00:16;;;;;;;2.90;2.60;;;;;;;;;;5051316;28;20811;-69
2022/08/24 07:02:44;;;;;;;4.00;3.30;;;;;;;;;;5051450;28;20953;-69
2022/08/24 07:05:11;;;;;;;4.97;3.53;;;;;;;;;;5051509;28;20439;-69
2022/08/24 07:07:40;;;;;;;3.50;3.00;;;;;;;;;;5051267;28;20969;-69
2022/08/24 07:10:08;;;;;;;4.30;3.80;;;;;;;;;;5049925;28;20493;-69
2022/08/24 07:12:35;;;;;;;3.50;3.20;;;;;;;;;;5051559;28;20454;-70
2022/08/24 07:15:03;;;;;;;3.93;3.43;;;;;;;;;;5050905;28;20502;-69
2022/08/24 07:17:30;;;;;;;3.17;2.90;;;;;;;;;;5051502;28;20870;-69
2022/08/24 07:19:57;;;;;;;4.13;3.73;;;;;;;;;;5049679;28;20460;-70
2022/08/24 07:22:24;;;;;;;5.70;2.97;;;;;;;;;;5051225;28;20450;-70
2022/08/24 07:24:53;;;;;;;3.37;2.90;;;;;;;;;;5050323;28;20447;-69
2022/08/24 07:27:22;;;;;;;4.20;3.53;;;;;;;;;;5051216;28;20794;-69
2022/08/24 07:29:49;;;;;;;4.00;3.23;;;;;;;;;;5050121;28;20521;-69
2022/08/24 07:32:16;;;;;;;4.07;3.70;;;;;;;;;;5050953;28;20450;-69
2022/08/24 07:34:44;;;;;;;4.93;4.00;;;;;;;;;;5038187;28;20964;-69
2022/08/24 07:37:11;;;;;;;4.73;3.80;;;;;;;;;;5050977;28;20453;-70
2022/08/24 07:39:39;;;;;;;4.13;2.97;;;;;;;;;;5050514;28;20493;-69
2022/08/24 07:42:07;;;;;;;3.77;2.73;;;;;;;;;;5050398;28;20999;-69
2022/08/24 07:44:35;;;;;;;4.00;3.60;;;;;;;;;;5050624;28;20454;-69
2022/08/24 07:47:02;;;;;;;3.47;3.17;;;;;;;;;;5049929;28;20537;-69
2022/08/24 07:49:30;;;;;;;2.90;2.70;;;;;;;;;;5050448;28;20454;-69
2022/08/24 07:51:57;;;;;;;4.10;3.03;;;;;;;;;;5050215;28;20473;-69
2022/08/24 07:54:26;;;;;;;4.27;3.27;;;;;;;;;;5050494;28;20965;-69
2022/08/24 07:56:53;;;;;;;4.70;3.77;;;;;;;;;;5050258;28;20454;-69
2022/08/24 07:59:22;;;;;;;3.50;3.20;;;;;;;;;;5050353;28;20525;-69
2022/08/24 08:01:51;;;;;;;3.60;3.30;;;;;;;;;;5049775;28;20458;-69
2022/08/24 08:04:23;;;;;;;6.90;3.50;;;;;;;;;;5050564;28;20905;-69
2022/08/24 08:06:51;;;;;;;6.57;3.43;;;;;;;;;;5049904;28;20443;-69
2022/08/24 08:09:18;;;;;;;3.93;3.30;;;;;;;;;;5050091;28;20466;-69
2022/08/24 08:11:45;;;;;;;3.10;2.90;;;;;;;;;;5050243;28;20938;-69
2022/08/24 08:14:12;;;;;;;2.57;2.37;;;;;;;;;;5050324;28;20593;-69
2022/08/24 08:16:41;;;;;;;4.57;2.70;;;;;;;;;;5050409;28;20455;-69
2022/08/24 08:19:08;;;;;;;3.60;2.80;;;;;;;;;;5049502;28;20529;-69
2022/08/24 08:24:21;;;;;;;2.83;2.53;;;;;;;;;;5050089;28;20442;-69
2022/08/24 08:26:50;;;;;;;2.53;1.93;;;;;;;;;;5050007;28;20448;-69
2022/08/24 08:29:18;;;;;;;2.30;1.83;;;;;;;;;;5049946;28;20442;-69
2022/08/24 08:31:47;;;;;;;2.23;2.13;;;;;;;;;;5053232;28;20497;-70
2022/08/24 08:34:15;;;;;;;2.20;2.00;;;;;;;;;;5054238;28;20520;-69
2022/08/24 08:36:42;;;;;;;2.70;2.30;;;;;;;;;;5054716;28;20455;-69
2022/08/24 08:39:10;;;;;;;2.10;1.87;;;;;;;;;;5053253;28;20783;-69
2022/08/24 08:41:52;;;;;;;3.03;1.63;;;;;;;;;;5054450;28;20825;-70
2022/08/24 08:44:25;;;;;;;3.33;1.87;;;;;;;;;;5052692;28;21022;-69
2022/08/24 08:46:57;;;;;;;4.80;2.33;;;;;;;;;;5053733;28;20453;-69
2022/08/24 08:49:34;;;;;;;2.37;2.17;;;;;;;;;;5053849;28;20829;-70
2022/08/24 08:52:23;;;;;;;2.13;1.90;;;;;;;;;;5053622;28;20532;-69
2022/08/24 08:54:57;;;;;;;2.13;1.80;;;;;;;;;;5053716;28;20446;-69
2022/08/24 08:57:32;;;;;;;1.80;1.70;;;;;;;;;;5054127;28;20443;-69
2022/08/24 09:00:14;;;;;;;2.20;2.00;;;;;;;;;;5053128;28;20442;-69
2022/08/24 09:02:59;;;;;;;2.20;2.00;;;;;;;;;;5052440;28;20461;-69
2022/08/24 09:05:40;;;;;;;2.00;1.80;;;;;;;;;;5053301;28;20446;-69
2022/08/24 09:08:13;;;;;;;2.47;1.93;;;;;;;;;;5053065;28;20456;-70
2022/08/24 09:10:47;;;;;;;2.40;1.77;;;;;;;;;;5053625;28;20474;-69
2022/08/24 09:13:22;;;;;;;2.27;1.90;;;;;;;;;;5053527;28;20497;-70
2022/08/24 09:16:06;;;;;;;1.80;1.70;;;;;;;;;;5056410;28;20449;-69
2022/08/24 09:18:41;;;;;;;2.60;1.97;;;;;;;;;;5054930;28;20449;-70
2022/08/24 09:21:26;;;;;;;2.47;1.70;;;;;;;;;;5053202;28;20450;-70
2022/08/24 09:24:00;;;;;;;1.80;1.70;;;;;;;;;;5052706;28;21010;-69
2022/08/24 09:26:29;;;;;;;2.10;1.70;;;;;;;;;;5053253;28;20473;-70
2022/08/24 09:29:04;;;;;;;2.23;1.83;;;;;;;;;;5052537;28;20548;-69
2022/08/24 09:31:50;;;;;;;2.30;1.73;;;;;;;;;;5053410;28;20477;-69
2022/08/24 09:34:19;;;;;;;3.10;2.03;;;;;;;;;;5053306;28;20442;-69
2022/08/24 09:37:00;;;;;;;1.47;1.37;;;;;;;;;;5052911;28;20446;-69
2022/08/24 09:39:38;;;;;;;1.53;1.43;;;;;;;;;;5052851;28;20782;-70
2022/08/24 09:42:27;;;;;;;2.03;1.83;;;;;;;;;;5052159;28;20985;-70
2022/08/24 09:45:12;;;;;;;1.47;1.37;;;;;;;;;;5052787;28;20455;-69
2022/08/24 09:47:54;;;;;;;2.13;1.70;;;;;;;;;;5053022;28;20447;-70
2022/08/24 09:50:46;;;;;;;1.60;1.50;;;;;;;;;;5051543;28;20486;-70
2022/08/24 09:53:37;;;;;;;1.87;1.50;;;;;;;;;;5014845;28;20459;-70
2022/08/24 09:56:25;;;;;;;2.07;1.90;;;;;;;;;;5039847;28;20890;-70
2022/08/24 09:59:03;;;;;;;1.80;1.70;;;;;;;;;;5048480;28;20546;-70
2022/08/24 10:01:34;;;;;;;1.40;1.30;;;;;;;;;;5052892;28;20452;-70
2022/08/24 10:04:07;;;;;;;1.20;1.10;;;;;;;;;;5052268;28;20805;-70
2022/08/24 10:06:38;;;;;;;1.93;1.73;;;;;;;;;;5052781;28;20450;-70
2022/08/24 10:09:20;;;;;;;1.37;1.27;;;;;;;;;;5051808;28;20845;-70
2022/08/24 10:11:51;;;;;;;3.10;1.60;;;;;;;;;;5052240;28;20470;-69
2022/08/24 10:14:28;;;;;;;1.40;1.30;;;;;;;;;;5052337;28;20485;-70
2022/08/24 10:17:00;;;;;;;2.53;1.60;;;;;;;;;;5051667;28;20880;-69
2022/08/24 10:19:39;;;;;;;2.03;1.70;;;;;;;;;;5052239;28;20449;-70
2022/08/24 10:22:13;;;;;;;1.70;1.60;;;;;;;;;;5039958;28;20649;-70
2022/08/24 10:24:46;;;;;;;2.10;1.50;;;;;;;;;;5052294;28;20538;-70
2022/08/24 10:27:31;;;;;;;1.90;1.43;;;;;;;;;;5052609;28;20439;-70
2022/08/24 10:30:09;;;;;;;2.00;1.77;;;;;;;;;;5051325;28;20447;-70
2022/08/24 10:32:44;;;;;;;2.87;1.47;;;;;;;;;;5052145;28;20446;-70
2022/08/24 10:35:14;;;;;;;1.37;1.27;;;;;;;;;;5052515;28;20478;-70
2022/08/24 10:37:44;;;;;;;1.57;1.47;;;;;;;;;;5051935;28;20442;-70
2022/08/24 10:40:24;;;;;;;1.70;1.60;;;;;;;;;;5052267;28;20438;-70
2022/08/24 10:45:57;;;;;;;1.50;1.40;;;;;;;;;;5052067;28;20449;-70
2022/08/24 10:48:42;;;;;;;1.60;1.50;;;;;;;;;;5051674;28;20521;-70
2022/08/24 10:51:17;;;;;;;1.50;1.40;;;;;;;;;;5051093;28;20894;-70
2022/08/24 10:53:49;;;;;;;2.13;1.87;;;;;;;;;;5051331;28;20774;-70
2022/08/24 10:56:18;;;;;;;2.10;1.70;;;;;;;;;;5051630;28;20453;-70
2022/08/24 10:58:50;;;;;;;1.80;1.70;;;;;;;;;;5051589;28;20443;-70
2022/08/24 11:01:20;;;;;;;2.20;2.00;;;;;;;;;;5052032;28;20446;-70
2022/08/24 11:03:53;;;;;;;4.50;1.57;;;;;;;;;;5051433;28;20452;-70
2022/08/24 11:06:20;;;;;;;2.17;2.07;;;;;;;;;;5051439;28;20959;-70
2022/08/24 11:08:56;;;;;;;1.60;1.50;;;;;;;;;;5050558;28;20867;-70
2022/08/24 11:11:25;;;;;;;1.73;1.60;;;;;;;;;;5051455;28;20513;-69
2022/08/24 11:13:53;;;;;;;1.70;1.60;;;;;;;;;;5050630;28;20482;-69
2022/08/24 11:16:25;;;;;;;1.60;1.50;;;;;;;;;;5051531;28;20559;-69
2022/08/24 11:18:54;;;;;;;3.33;1.60;;;;;;;;;;5050541;28;20480;-69
2022/08/24 11:21:35;;;;;;;1.60;1.50;;;;;;;;;;5051322;28;20450;-69
2022/08/24 11:24:03;;;;;;;1.30;1.20;;;;;;;;;;5050719;28;20442;-69
2022/08/24 11:26:31;;;;;;;2.07;1.60;;;;;;;;;;5051275;28;20949;-69
2022/08/24 11:28:59;;;;;;;1.97;1.63;;;;;;;;;;5050346;28;20454;-70
2022/08/24 11:31:32;;;;;;;1.50;1.40;;;;;;;;;;5051159;28;20481;-69
2022/08/24 11:34:00;;;;;;;2.10;1.70;;;;;;;;;;5050795;28;20447;-69
2022/08/24 11:36:30;;;;;;;1.80;1.70;;;;;;;;;;5051100;28;20492;-70
2022/08/24 11:39:11;;;;;;;1.70;1.60;;;;;;;;;;5049961;28;20533;-70
2022/08/24 11:41:44;;;;;;;1.80;1.67;;;;;;;;;;5050692;28;20442;-70
2022/08/24 11:44:15;;;;;;;1.50;1.40;;;;;;;;;;5051111;28;20462;-69
2022/08/24 11:46:49;;;;;;;1.50;1.40;;;;;;;;;;5050856;28;20470;-70
2022/08/24 11:49:21;;;;;;;1.73;1.57;;;;;;;;;;5050656;28;20446;-69
2022/08/24 11:52:03;;;;;;;2.07;1.67;;;;;;;;;;5050133;28;20505;-69
2022/08/24 11:54:34;;;;;;;1.87;1.43;;;;;;;;;;5050836;28;20453;-69
2022/08/24 11:57:06;;;;;;;1.67;1.57;;;;;;;;;;5050392;28;20450;-69
2022/08/24 11:59:38;;;;;;;1.50;1.40;;;;;;;;;;5050082;28;20913;-70
2022/08/24 12:02:08;;;;;;;1.47;1.37;;;;;;;;;;5049885;28;20692;-69
2022/08/24 12:04:40;;;;;;;2.40;1.80;;;;;;;;;;5050827;28;20446;-69
2022/08/24 12:07:12;;;;;;;2.23;2.07;;;;;;;;;;5049741;28;20913;-69
2022/08/24 12:09:45;;;;;;;1.83;1.70;;;;;;;;;;5049884;28;20446;-70
2022/08/24 12:12:15;;;;;;;1.70;1.60;;;;;;;;;;5050490;28;20477;-69
2022/08/24 12:14:45;;;;;;;1.50;1.40;;;;;;;;;;5050132;28;20482;-70
2022/08/24 12:17:17;;;;;;;2.27;2.07;;;;;;;;;;5057300;28;20445;-70
2022/08/24 12:19:47;;;;;;;1.80;1.53;;;;;;;;;;5050361;28;20442;-70
2022/08/24 12:22:15;;;;;;;2.10;1.73;;;;;;;;;;5051010;28;20458;-70
2022/08/24 12:24:45;;;;;;;1.33;1.23;;;;;;;;;;5050478;28;20556;-70
2022/08/24 12:27:13;;;;;;;1.83;1.57;;;;;;;;;;5050503;28;20372;-70
2022/08/24 12:29:43;;;;;;;1.63;1.53;;;;;;;;;;5050033;28;20456;-70
2022/08/24 12:32:12;;;;;;;1.60;1.40;;;;;;;;;;5049544;28;20494;-70
2022/08/24 12:34:46;;;;;;;1.50;1.40;;;;;;;;;;5050063;28;20203;-70
2022/08/24 12:37:16;;;;;;;2.10;1.90;;;;;;;;;;5050738;28;20628;-70
2022/08/24 12:39:46;;;;;;;1.27;1.17;;;;;;;;;;5049932;28;20477;-70
2022/08/24 12:42:16;;;;;;;1.90;1.80;;;;;;;;;;5050232;28;20257;-70
2022/08/24 12:44:46;;;;;;;1.83;1.73;;;;;;;;;;5050604;28;20203;-70
2022/08/24 12:47:18;;;;;;;1.60;1.50;;;;;;;;;;5050128;28;20200;-70
2022/08/24 12:49:51;;;;;;;1.77;1.67;;;;;;;;;;5049601;28;20210;-69
2022/08/24 12:52:36;;;;;;;1.37;1.27;;;;;;;;;;5049993;28;20212;-70
2022/08/24 12:55:15;;;;;;;1.67;1.40;;;;;;;;;;5049189;28;20537;-69
2022/08/24 12:57:48;;;;;;;4.70;1.50;;;;;;;;;;5050058;28;20223;-70
2022/08/24 13:00:27;;;;;;;1.50;1.20;;;;;;;;;;5050127;28;20437;-70
2022/08/24 13:02:58;;;;;;;1.30;1.20;;;;;;;;;;5049784;28;20446;-70
2022/08/24 13:05:38;;;;;;;1.40;1.30;;;;;;;;;;5050005;28;20941;-70
2022/08/24 13:08:10;;;;;;;1.23;1.13;;;;;;;;;;5049370;28;20753;-70
2022/08/24 13:10:39;;;;;;;1.80;1.33;;;;;;;;;;5049875;28;20195;-70
2022/08/24 13:13:11;;;;;;;1.57;1.47;;;;;;;;;;5049410;28;20486;-70
2022/08/24 13:15:53;;;;;;;2.30;2.10;;;;;;;;;;5051213;28;20481;-70
2022/08/24 13:18:46;;;;;;;2.83;1.63;;;;;;;;;;5052738;28;20465;-70
2022/08/24 13:21:17;;;;;;;1.80;1.50;;;;;;;;;;5053844;28;20438;-70
2022/08/24 13:23:44;;;;;;;1.67;1.40;;;;;;;;;;5053902;28;20449;-70
2022/08/24 13:26:23;;;;;;;2.50;1.60;;;;;;;;;;5053119;28;20448;-70
2022/08/24 13:28:52;;;;;;;1.27;0.90;;;;;;;;;;5052353;28;20917;-69
2022/08/24 13:31:22;;;;;;;2.07;1.50;;;;;;;;;;5053362;28;20450;-70
2022/08/24 13:33:50;;;;;;;1.43;1.33;;;;;;;;;;5053059;28;20453;-69
2022/08/24 13:36:35;;;;;;;1.43;1.20;;;;;;;;;;5053015;28;20445;-70
2022/08/24 13:39:10;;;;;;;1.70;1.60;;;;;;;;;;5048652;28;20540;-69
2022/08/24 13:41:46;;;;;;;1.53;1.43;;;;;;;;;;5053097;28;20449;-70
2022/08/24 13:44:17;;;;;;;1.80;1.17;;;;;;;;;;5053453;28;20457;-70
2022/08/24 13:46:48;;;;;;;1.50;1.40;;;;;;;;;;5053481;28;20192;-71
2022/08/24 13:49:28;;;;;;;1.40;1.30;;;;;;;;;;5052900;28;20192;-70
2022/08/24 13:52:04;;;;;;;1.50;1.40;;;;;;;;;;5052489;28;20473;-69
2022/08/24 13:54:36;;;;;;;1.53;1.43;;;;;;;;;;5052871;28;20195;-69
2022/08/24 13:57:07;;;;;;;1.33;1.20;;;;;;;;;;5051984;28;20528;-69
2022/08/24 13:59:39;;;;;;;1.57;1.47;;;;;;;;;;5052603;28;20203;-70
2022/08/24 14:02:11;;;;;;;1.97;1.80;;;;;;;;;;5052310;28;20452;-69
2022/08/24 14:04:52;;;;;;;1.40;1.20;;;;;;;;;;5053090;28;20290;-69
2022/08/24 14:07:21;;;;;;;1.90;1.77;;;;;;;;;;5052620;28;20450;-69
2022/08/24 14:10:02;;;;;;;2.57;1.50;;;;;;;;;;5052147;28;20203;-69
2022/08/24 14:12:45;;;;;;;1.70;1.60;;;;;;;;;;5052692;28;20477;-69
2022/08/24 14:15:17;;;;;;;1.63;1.53;;;;;;;;;;5052642;28;20488;-70
2022/08/24 14:17:52;;;;;;;1.57;1.47;;;;;;;;;;5058574;28;20608;-69
2022/08/24 14:20:41;;;;;;;1.40;1.30;;;;;;;;;;5052652;28;20550;-69
2022/08/24 14:23:14;;;;;;;1.73;1.53;;;;;;;;;;5051697;28;20482;-69
2022/08/24 14:25:43;;;;;;;1.20;1.10;;;;;;;;;;5052464;28;20525;-69
2022/08/24 14:28:25;;;;;;;1.53;1.20;;;;;;;;;;5050803;28;20929;-69
2022/08/24 14:31:07;;;;;;;1.30;1.20;;;;;;;;;;5051458;28;20454;-69
2022/08/24 14:33:36;;;;;;;1.43;1.33;;;;;;;;;;5051955;28;20640;-70
2022/08/24 14:36:15;;;;;;;1.77;1.67;;;;;;;;;;5051178;28;20925;-69
2022/08/24 14:38:47;;;;;;;2.00;1.70;;;;;;;;;;5051962;28;20199;-70
2022/08/24 14:41:26;;;;;;;3.03;1.70;;;;;;;;;;5052143;28;20218;-69
2022/08/24 14:44:02;;;;;;;1.40;1.30;;;;;;;;;;5051222;28;20209;-68
2022/08/24 14:46:31;;;;;;;1.40;1.30;;;;;;;;;;5052276;28;20234;-69
2022/08/24 14:49:06;;;;;;;1.60;1.40;;;;;;;;;;5050750;28;20199;-70
2022/08/24 14:51:44;;;;;;;1.38;1.27;;;;;;;;;;5051699;28;20559;-70
2022/08/24 14:54:14;;;;;;;1.67;1.58;;;;;;;;;;5051715;28;20231;-69
2022/08/24 14:56:47;;;;;;;1.40;1.30;;;;;;;;;;5051935;28;20200;-70
2022/08/24 14:59:19;;;;;;;1.73;1.63;;;;;;;;;;5039249;28;20625;-70
2022/08/24 15:01:47;;;;;;;1.58;1.48;;;;;;;;;;5051430;28;20264;-69
2022/08/24 15:04:35;;;;;;;2.20;1.40;;;;;;;;;;5051882;28;20206;-70